Hauptseite
METAR-TAF:

METAR-TAF

Flughäfen :

Flugplatz Oberpfaffenhofen

Oberpfaffenhofen, Deutschland

Breite: 48-05N, Länge: 011-17E, Höhe: 600 m

Beobachtung

Neuester Wetterbericht von vor 10 Minuten, um 00:50 UTC
Wind 3 kt aus Südost
Temperatur -1°C
Luftfeuchtigkeit 100%
Luftdruck 1020 hPa
Sichtweite 10 km oder mehr

METAR: EDMO 080050Z AUTO 14003KT 9999 // NCD M01/M01 Q1020

Zeit: 03:00 (01:00 UTC)

Prognose

Neuester Wetterbericht von vor 8 Stunden und 0 Minuten, um 17:00 UTC
Gültige Prognose vom 07 um 18 UTC bis 08 um 03 UTC
Wind 10 kt aus West
Sichtweite 10 km oder mehr
keine Wolken unter 1500 m und keine Kumulonimbus oder Gewitterwolken
Übergehend zu
vom 07 um 18 UTC bis 07 um 20 UTC
Wind 5 kt aus West/Südwest

TAF: EDMO 071700Z 0718/0803 27010KT CAVOK BECMG 0718/0720 25005KT

Wetterbeobachtungen und Prognosen von mehr als 4000 Flughäfen (METAR und TAF Bericht).

Die verfügbaren Stationen werden durch gelbe und rote Markierungen auf der Karte dargestellt.

Führen Sie die Maus auf sie, um den Namen der Station zu sehen.

Darauf klicken, um die Beobachtung von Wetterbeobachtungen und Prognosen zu sehen.

Um die Karte zu ändern : klicken Sie auf den grünen Tasten mit einem schwarzen Kreuz Zum Vergrößern, auf den grünen Button mit einem Gedankenstrich zu verkleinern, oder auf die grünen Pfeile für benachbarte Karten.


METAR-TAF: